sensor_id;sensor_type;location;lat;lon;timestamp;P1;durP1;ratioP1;P2;durP2;ratioP2
72785;SDS011;60902;53.876;10.674;2023-12-20T00:00:03;3.80;;;1.17;;
72785;SDS011;60902;53.876;10.674;2023-12-20T00:00:16;3.85;;;0.95;;
72785;SDS011;60902;53.876;10.674;2023-12-20T00:00:27;4.72;;;1.25;;
72785;SDS011;60902;53.876;10.674;2023-12-20T00:00:38;4.93;;;1.55;;
72785;SDS011;60902;53.876;10.674;2023-12-20T00:00:49;5.10;;;1.50;;
72785;SDS011;60902;53.876;10.674;2023-12-20T00:01:00;4.50;;;1.23;;
72785;SDS011;60902;53.876;10.674;2023-12-20T00:01:11;3.83;;;0.90;;
72785;SDS011;60902;53.876;10.674;2023-12-20T00:01:22;3.97;;;0.93;;
72785;SDS011;60902;53.876;10.674;2023-12-20T00:01:33;4.70;;;1.00;;
72785;SDS011;60902;53.876;10.674;2023-12-20T00:01:44;5.43;;;1.00;;
72785;SDS011;60902;53.876;10.674;2023-12-20T00:01:55;6.00;;;1.05;;
72785;SDS011;60902;53.876;10.674;2023-12-20T00:02:06;5.65;;;1.10;;
72785;SDS011;60902;53.876;10.674;2023-12-20T00:02:18;4.72;;;1.13;;
72785;SDS011;60902;53.876;10.674;2023-12-20T00:02:29;4.35;;;1.02;;
72785;SDS011;60902;53.876;10.674;2023-12-20T00:02:40;4.15;;;1.10;;
72785;SDS011;60902;53.876;10.674;2023-12-20T00:02:55;4.40;;;0.85;;
72785;SDS011;60902;53.876;10.674;2023-12-20T00:03:06;4.80;;;0.98;;
72785;SDS011;60902;53.876;10.674;2023-12-20T00:03:17;5.60;;;1.27;;
72785;SDS011;60902;53.876;10.674;2023-12-20T00:03:28;5.50;;;1.33;;
72785;SDS011;60902;53.876;10.674;2023-12-20T00:03:39;5.38;;;1.35;;
72785;SDS011;60902;53.876;10.674;2023-12-20T00:03:50;5.20;;;1.30;;
72785;SDS011;60902;53.876;10.674;2023-12-20T00:04:03;5.25;;;1.33;;
72785;SDS011;60902;53.876;10.674;2023-12-20T00:04:14;5.18;;;1.30;;
72785;SDS011;60902;53.876;10.674;2023-12-20T00:04:25;5.65;;;1.23;;
72785;SDS011;60902;53.876;10.674;2023-12-20T00:04:36;5.00;;;1.13;;
72785;SDS011;60902;53.876;10.674;2023-12-20T00:04:47;5.22;;;1.05;;
72785;SDS011;60902;53.876;10.674;2023-12-20T00:04:58;4.53;;;0.85;;
72785;SDS011;60902;53.876;10.674;2023-12-20T00:05:09;5.20;;;1.10;;
72785;SDS011;60902;53.876;10.674;2023-12-20T00:05:20;4.25;;;1.15;;
72785;SDS011;60902;53.876;10.674;2023-12-20T00:05:31;4.65;;;1.15;;
72785;SDS011;60902;53.876;10.674;2023-12-20T00:05:42;4.82;;;1.10;;
72785;SDS011;60902;53.876;10.674;2023-12-20T00:05:53;5.30;;;1.10;;
72785;SDS011;60902;53.876;10.674;2023-12-20T00:06:05;5.90;;;1.08;;
72785;SDS011;60902;53.876;10.674;2023-12-20T00:06:16;5.65;;;0.95;;
72785;SDS011;60902;53.876;10.674;2023-12-20T00:06:27;4.85;;;0.93;;
72785;SDS011;60902;53.876;10.674;2023-12-20T00:06:38;4.25;;;1.00;;
72785;SDS011;60902;53.876;10.674;2023-12-20T00:06:49;5.03;;;1.20;;
72785;SDS011;60902;53.876;10.674;2023-12-20T00:06:59;5.30;;;1.10;;
72785;SDS011;60902;53.876;10.674;2023-12-20T00:07:11;6.28;;;1.10;;
72785;SDS011;60902;53.876;10.674;2023-12-20T00:07:22;5.85;;;0.90;;
72785;SDS011;60902;53.876;10.674;2023-12-20T00:07:33;5.63;;;0.93;;
72785;SDS011;60902;53.876;10.674;2023-12-20T00:07:44;5.03;;;0.98;;
72785;SDS011;60902;53.876;10.674;2023-12-20T00:07:56;5.53;;;1.05;;
72785;SDS011;60902;53.876;10.674;2023-12-20T00:08:07;5.60;;;1.05;;
72785;SDS011;60902;53.876;10.674;2023-12-20T00:08:19;5.90;;;1.27;;
72785;SDS011;60902;53.876;10.674;2023-12-20T00:08:30;5.45;;;1.27;;
72785;SDS011;60902;53.876;10.674;2023-12-20T00:08:41;5.85;;;1.25;;
72785;SDS011;60902;53.876;10.674;2023-12-20T00:08:52;5.70;;;1.20;;
72785;SDS011;60902;53.876;10.674;2023-12-20T00:09:03;5.05;;;1.35;;
72785;SDS011;60902;53.876;10.674;2023-12-20T00:09:14;4.95;;;1.30;;
72785;SDS011;60902;53.876;10.674;2023-12-20T00:09:25;4.93;;;1.30;;
72785;SDS011;60902;53.876;10.674;2023-12-20T00:09:36;5.55;;;1.23;;
72785;SDS011;60902;53.876;10.674;2023-12-20T00:09:47;5.47;;;1.20;;
72785;SDS011;60902;53.876;10.674;2023-12-20T00:09:59;5.47;;;1.00;;
72785;SDS011;60902;53.876;10.674;2023-12-20T00:10:09;5.50;;;1.02;;
72785;SDS011;60902;53.876;10.674;2023-12-20T00:10:22;5.82;;;1.13;;
72785;SDS011;60902;53.876;10.674;2023-12-20T00:10:33;5.75;;;1.10;;
72785;SDS011;60902;53.876;10.674;2023-12-20T00:10:44;5.47;;;1.03;;
72785;SDS011;60902;53.876;10.674;2023-12-20T00:10:55;5.10;;;0.95;;
72785;SDS011;60902;53.876;10.674;2023-12-20T00:11:06;5.75;;;1.00;;
72785;SDS011;60902;53.876;10.674;2023-12-20T00:11:17;5.93;;;1.10;;
72785;SDS011;60902;53.876;10.674;2023-12-20T00:11:27;5.88;;;1.20;;
72785;SDS011;60902;53.876;10.674;2023-12-20T00:11:38;5.30;;;1.23;;
72785;SDS011;60902;53.876;10.674;2023-12-20T00:11:52;5.07;;;1.15;;
72785;SDS011;60902;53.876;10.674;2023-12-20T00:12:03;5.78;;;1.30;;
72785;SDS011;60902;53.876;10.674;2023-12-20T00:12:14;5.00;;;1.10;;
72785;SDS011;60902;53.876;10.674;2023-12-20T00:12:25;5.07;;;1.20;;
72785;SDS011;60902;53.876;10.674;2023-12-20T00:12:36;5.28;;;1.20;;
72785;SDS011;60902;53.876;10.674;2023-12-20T00:12:47;5.43;;;1.25;;
72785;SDS011;60902;53.876;10.674;2023-12-20T00:12:57;4.73;;;1.40;;
72785;SDS011;60902;53.876;10.674;2023-12-20T00:13:10;4.07;;;1.38;;
72785;SDS011;60902;53.876;10.674;2023-12-20T00:13:21;4.95;;;1.15;;
72785;SDS011;60902;53.876;10.674;2023-12-20T00:13:32;4.70;;;1.00;;
72785;SDS011;60902;53.876;10.674;2023-12-20T00:13:44;3.78;;;1.00;;
72785;SDS011;60902;53.876;10.674;2023-12-20T00:13:55;3.33;;;0.90;;
72785;SDS011;60902;53.876;10.674;2023-12-20T00:14:06;4.18;;;1.00;;
72785;SDS011;60902;53.876;10.674;2023-12-20T00:14:17;4.28;;;1.00;;
72785;SDS011;60902;53.876;10.674;2023-12-20T00:14:28;4.43;;;1.08;;
72785;SDS011;60902;53.876;10.674;2023-12-20T00:14:39;3.80;;;1.00;;
72785;SDS011;60902;53.876;10.674;2023-12-20T00:14:50;4.53;;;1.10;;
72785;SDS011;60902;53.876;10.674;2023-12-20T00:15:02;4.85;;;1.13;;
72785;SDS011;60902;53.876;10.674;2023-12-20T00:15:15;4.70;;;1.20;;
72785;SDS011;60902;53.876;10.674;2023-12-20T00:15:25;4.78;;;1.20;;
72785;SDS011;60902;53.876;10.674;2023-12-20T00:15:36;4.65;;;1.10;;
72785;SDS011;60902;53.876;10.674;2023-12-20T00:15:48;4.57;;;1.10;;
72785;SDS011;60902;53.876;10.674;2023-12-20T00:15:58;4.85;;;1.10;;
72785;SDS011;60902;53.876;10.674;2023-12-20T00:16:09;5.45;;;1.10;;
72785;SDS011;60902;53.876;10.674;2023-12-20T00:16:20;5.72;;;1.10;;
72785;SDS011;60902;53.876;10.674;2023-12-20T00:16:31;6.88;;;1.50;;
72785;SDS011;60902;53.876;10.674;2023-12-20T00:16:42;7.00;;;1.53;;
72785;SDS011;60902;53.876;10.674;2023-12-20T00:16:53;6.03;;;1.30;;
72785;SDS011;60902;53.876;10.674;2023-12-20T00:17:04;5.18;;;1.00;;
72785;SDS011;60902;53.876;10.674;2023-12-20T00:17:16;5.05;;;1.13;;
72785;SDS011;60902;53.876;10.674;2023-12-20T00:17:27;5.15;;;1.20;;
72785;SDS011;60902;53.876;10.674;2023-12-20T00:17:38;5.22;;;1.17;;
72785;SDS011;60902;53.876;10.674;2023-12-20T00:17:49;4.88;;;1.10;;
72785;SDS011;60902;53.876;10.674;2023-12-20T00:18:00;4.63;;;1.10;;
72785;SDS011;60902;53.876;10.674;2023-12-20T00:18:11;5.10;;;0.98;;
72785;SDS011;60902;53.876;10.674;2023-12-20T00:18:22;5.00;;;1.10;;
72785;SDS011;60902;53.876;10.674;2023-12-20T00:18:33;5.20;;;1.10;;
72785;SDS011;60902;53.876;10.674;2023-12-20T00:18:44;4.55;;;1.20;;
72785;SDS011;60902;53.876;10.674;2023-12-20T00:18:56;4.43;;;1.10;;
72785;SDS011;60902;53.876;10.674;2023-12-20T00:19:08;4.57;;;1.15;;
72785;SDS011;60902;53.876;10.674;2023-12-20T00:19:19;4.85;;;1.20;;
72785;SDS011;60902;53.876;10.674;2023-12-20T00:19:30;4.72;;;1.20;;
72785;SDS011;60902;53.876;10.674;2023-12-20T00:19:41;5.63;;;1.40;;
72785;SDS011;60902;53.876;10.674;2023-12-20T00:19:51;5.50;;;1.30;;
72785;SDS011;60902;53.876;10.674;2023-12-20T00:20:03;5.45;;;1.27;;
72785;SDS011;60902;53.876;10.674;2023-12-20T00:20:16;5.63;;;1.20;;
72785;SDS011;60902;53.876;10.674;2023-12-20T00:20:27;6.03;;;1.30;;
72785;SDS011;60902;53.876;10.674;2023-12-20T00:20:39;6.15;;;1.40;;
72785;SDS011;60902;53.876;10.674;2023-12-20T00:20:49;6.20;;;1.35;;
72785;SDS011;60902;53.876;10.674;2023-12-20T00:21:01;5.80;;;1.42;;
72785;SDS011;60902;53.876;10.674;2023-12-20T00:21:12;5.60;;;1.63;;
72785;SDS011;60902;53.876;10.674;2023-12-20T00:21:24;5.75;;;1.50;;
72785;SDS011;60902;53.876;10.674;2023-12-20T00:21:35;6.47;;;1.43;;
72785;SDS011;60902;53.876;10.674;2023-12-20T00:21:45;5.50;;;1.23;;
72785;SDS011;60902;53.876;10.674;2023-12-20T00:21:58;5.10;;;1.17;;
72785;SDS011;60902;53.876;10.674;2023-12-20T00:22:09;5.07;;;1.10;;
72785;SDS011;60902;53.876;10.674;2023-12-20T00:22:21;5.57;;;1.17;;
72785;SDS011;60902;53.876;10.674;2023-12-20T00:22:32;6.00;;;1.20;;
72785;SDS011;60902;53.876;10.674;2023-12-20T00:22:42;6.13;;;1.33;;
72785;SDS011;60902;53.876;10.674;2023-12-20T00:22:54;5.93;;;1.33;;
72785;SDS011;60902;53.876;10.674;2023-12-20T00:23:06;6.05;;;1.20;;
72785;SDS011;60902;53.876;10.674;2023-12-20T00:23:18;6.05;;;1.20;;
72785;SDS011;60902;53.876;10.674;2023-12-20T00:23:30;6.95;;;1.20;;
72785;SDS011;60902;53.876;10.674;2023-12-20T00:23:40;7.28;;;1.20;;
72785;SDS011;60902;53.876;10.674;2023-12-20T00:23:51;7.00;;;1.17;;
72785;SDS011;60902;53.876;10.674;2023-12-20T00:24:03;5.90;;;1.23;;
72785;SDS011;60902;53.876;10.674;2023-12-20T00:24:15;4.45;;;1.20;;
72785;SDS011;60902;53.876;10.674;2023-12-20T00:24:26;4.50;;;1.10;;
72785;SDS011;60902;53.876;10.674;2023-12-20T00:24:37;5.30;;;1.17;;
72785;SDS011;60902;53.876;10.674;2023-12-20T00:24:48;5.60;;;1.30;;
72785;SDS011;60902;53.876;10.674;2023-12-20T00:24:59;5.53;;;1.30;;
72785;SDS011;60902;53.876;10.674;2023-12-20T00:25:10;5.03;;;1.35;;
72785;SDS011;60902;53.876;10.674;2023-12-20T00:25:21;4.90;;;1.45;;
72785;SDS011;60902;53.876;10.674;2023-12-20T00:25:32;4.63;;;1.42;;
72785;SDS011;60902;53.876;10.674;2023-12-20T00:25:43;4.47;;;1.50;;
72785;SDS011;60902;53.876;10.674;2023-12-20T00:25:54;4.88;;;1.65;;
72785;SDS011;60902;53.876;10.674;2023-12-20T00:26:06;5.65;;;1.70;;
72785;SDS011;60902;53.876;10.674;2023-12-20T00:26:17;6.43;;;1.60;;
72785;SDS011;60902;53.876;10.674;2023-12-20T00:26:28;6.30;;;1.30;;
72785;SDS011;60902;53.876;10.674;2023-12-20T00:26:39;5.65;;;1.17;;
72785;SDS011;60902;53.876;10.674;2023-12-20T00:26:49;4.43;;;0.95;;
72785;SDS011;60902;53.876;10.674;2023-12-20T00:27:00;5.10;;;1.30;;
72785;SDS011;60902;53.876;10.674;2023-12-20T00:27:12;5.72;;;1.38;;
72785;SDS011;60902;53.876;10.674;2023-12-20T00:27:23;6.05;;;1.83;;
72785;SDS011;60902;53.876;10.674;2023-12-20T00:27:35;6.60;;;1.70;;
72785;SDS011;60902;53.876;10.674;2023-12-20T00:27:46;5.80;;;1.50;;
72785;SDS011;60902;53.876;10.674;2023-12-20T00:27:57;5.30;;;0.97;;
72785;SDS011;60902;53.876;10.674;2023-12-20T00:28:08;4.97;;;0.90;;
72785;SDS011;60902;53.876;10.674;2023-12-20T00:28:19;5.35;;;1.20;;
72785;SDS011;60902;53.876;10.674;2023-12-20T00:28:30;5.32;;;1.30;;
72785;SDS011;60902;53.876;10.674;2023-12-20T00:28:40;4.70;;;1.20;;
72785;SDS011;60902;53.876;10.674;2023-12-20T00:28:52;5.47;;;1.20;;
72785;SDS011;60902;53.876;10.674;2023-12-20T00:29:03;5.75;;;1.30;;
72785;SDS011;60902;53.876;10.674;2023-12-20T00:29:15;5.20;;;1.30;;
72785;SDS011;60902;53.876;10.674;2023-12-20T00:29:26;4.45;;;1.13;;
72785;SDS011;60902;53.876;10.674;2023-12-20T00:29:37;4.95;;;1.15;;
72785;SDS011;60902;53.876;10.674;2023-12-20T00:29:48;5.80;;;1.30;;
72785;SDS011;60902;53.876;10.674;2023-12-20T00:30:00;5.65;;;1.20;;
72785;SDS011;60902;53.876;10.674;2023-12-20T00:30:11;6.10;;;1.42;;
72785;SDS011;60902;53.876;10.674;2023-12-20T00:30:22;5.97;;;1.40;;
72785;SDS011;60902;53.876;10.674;2023-12-20T00:30:33;6.07;;;1.50;;
72785;SDS011;60902;53.876;10.674;2023-12-20T00:30:44;5.85;;;1.35;;
72785;SDS011;60902;53.876;10.674;2023-12-20T00:30:56;5.28;;;1.40;;
72785;SDS011;60902;53.876;10.674;2023-12-20T00:31:06;5.90;;;1.65;;
72785;SDS011;60902;53.876;10.674;2023-12-20T00:31:17;6.32;;;1.80;;
72785;SDS011;60902;53.876;10.674;2023-12-20T00:31:28;6.07;;;1.60;;
72785;SDS011;60902;53.876;10.674;2023-12-20T00:31:39;6.25;;;1.50;;
72785;SDS011;60902;53.876;10.674;2023-12-20T00:31:50;5.40;;;1.30;;
72785;SDS011;60902;53.876;10.674;2023-12-20T00:32:01;6.13;;;1.33;;
72785;SDS011;60902;53.876;10.674;2023-12-20T00:32:12;6.90;;;1.35;;
72785;SDS011;60902;53.876;10.674;2023-12-20T00:32:23;7.38;;;1.38;;
72785;SDS011;60902;53.876;10.674;2023-12-20T00:32:34;7.50;;;1.80;;
72785;SDS011;60902;53.876;10.674;2023-12-20T00:32:46;6.80;;;2.00;;
72785;SDS011;60902;53.876;10.674;2023-12-20T00:32:57;7.22;;;1.90;;
72785;SDS011;60902;53.876;10.674;2023-12-20T00:33:08;5.65;;;1.40;;
72785;SDS011;60902;53.876;10.674;2023-12-20T00:33:19;5.32;;;1.52;;
72785;SDS011;60902;53.876;10.674;2023-12-20T00:33:30;5.07;;;1.50;;
72785;SDS011;60902;53.876;10.674;2023-12-20T00:33:40;5.75;;;1.50;;
72785;SDS011;60902;53.876;10.674;2023-12-20T00:33:53;6.07;;;1.60;;
72785;SDS011;60902;53.876;10.674;2023-12-20T00:34:06;5.95;;;1.80;;
72785;SDS011;60902;53.876;10.674;2023-12-20T00:34:17;6.05;;;1.42;;
72785;SDS011;60902;53.876;10.674;2023-12-20T00:34:28;6.23;;;1.50;;
72785;SDS011;60902;53.876;10.674;2023-12-20T00:34:40;5.63;;;1.38;;
72785;SDS011;60902;53.876;10.674;2023-12-20T00:34:50;5.18;;;1.20;;
72785;SDS011;60902;53.876;10.674;2023-12-20T00:35:01;5.13;;;1.10;;
72785;SDS011;60902;53.876;10.674;2023-12-20T00:35:12;6.15;;;1.13;;
72785;SDS011;60902;53.876;10.674;2023-12-20T00:35:23;6.15;;;1.20;;
72785;SDS011;60902;53.876;10.674;2023-12-20T00:35:34;6.65;;;1.20;;
72785;SDS011;60902;53.876;10.674;2023-12-20T00:35:45;7.00;;;1.35;;
72785;SDS011;60902;53.876;10.674;2023-12-20T00:35:57;7.20;;;1.38;;
72785;SDS011;60902;53.876;10.674;2023-12-20T00:36:07;6.47;;;1.45;;
72785;SDS011;60902;53.876;10.674;2023-12-20T00:36:18;5.93;;;1.60;;
72785;SDS011;60902;53.876;10.674;2023-12-20T00:36:29;5.68;;;1.60;;
72785;SDS011;60902;53.876;10.674;2023-12-20T00:36:41;5.53;;;1.50;;
72785;SDS011;60902;53.876;10.674;2023-12-20T00:36:52;5.50;;;1.20;;
72785;SDS011;60902;53.876;10.674;2023-12-20T00:37:05;4.93;;;1.20;;
72785;SDS011;60902;53.876;10.674;2023-12-20T00:37:16;5.40;;;1.20;;
72785;SDS011;60902;53.876;10.674;2023-12-20T00:37:27;5.43;;;1.27;;
72785;SDS011;60902;53.876;10.674;2023-12-20T00:37:38;5.88;;;1.48;;
72785;SDS011;60902;53.876;10.674;2023-12-20T00:37:49;6.30;;;1.55;;
72785;SDS011;60902;53.876;10.674;2023-12-20T00:38:00;6.40;;;1.55;;
72785;SDS011;60902;53.876;10.674;2023-12-20T00:38:11;6.00;;;1.38;;
72785;SDS011;60902;53.876;10.674;2023-12-20T00:38:22;5.63;;;1.20;;
72785;SDS011;60902;53.876;10.674;2023-12-20T00:38:34;6.93;;;1.25;;
72785;SDS011;60902;53.876;10.674;2023-12-20T00:38:45;7.45;;;1.38;;
72785;SDS011;60902;53.876;10.674;2023-12-20T00:38:56;6.65;;;1.45;;
72785;SDS011;60902;53.876;10.674;2023-12-20T00:39:07;5.93;;;1.33;;
72785;SDS011;60902;53.876;10.674;2023-12-20T00:39:18;5.13;;;1.23;;
72785;SDS011;60902;53.876;10.674;2023-12-20T00:39:29;5.22;;;1.25;;
72785;SDS011;60902;53.876;10.674;2023-12-20T00:39:39;5.38;;;1.40;;
72785;SDS011;60902;53.876;10.674;2023-12-20T00:39:50;5.90;;;1.35;;
72785;SDS011;60902;53.876;10.674;2023-12-20T00:40:01;6.13;;;1.50;;
72785;SDS011;60902;53.876;10.674;2023-12-20T00:40:13;6.22;;;1.60;;
72785;SDS011;60902;53.876;10.674;2023-12-20T00:40:24;6.95;;;1.55;;
72785;SDS011;60902;53.876;10.674;2023-12-20T00:40:35;6.60;;;1.30;;
72785;SDS011;60902;53.876;10.674;2023-12-20T00:40:46;6.23;;;1.23;;
72785;SDS011;60902;53.876;10.674;2023-12-20T00:40:57;5.68;;;1.23;;
72785;SDS011;60902;53.876;10.674;2023-12-20T00:41:08;5.33;;;1.30;;
72785;SDS011;60902;53.876;10.674;2023-12-20T00:41:19;5.90;;;1.30;;
72785;SDS011;60902;53.876;10.674;2023-12-20T00:41:30;5.97;;;1.33;;
72785;SDS011;60902;53.876;10.674;2023-12-20T00:41:40;6.28;;;1.30;;
72785;SDS011;60902;53.876;10.674;2023-12-20T00:41:51;5.55;;;1.40;;
72785;SDS011;60902;53.876;10.674;2023-12-20T00:42:03;5.68;;;1.30;;
72785;SDS011;60902;53.876;10.674;2023-12-20T00:42:15;6.25;;;1.52;;
72785;SDS011;60902;53.876;10.674;2023-12-20T00:42:26;7.55;;;1.50;;
72785;SDS011;60902;53.876;10.674;2023-12-20T00:42:37;6.97;;;1.52;;
72785;SDS011;60902;53.876;10.674;2023-12-20T00:42:48;5.22;;;1.27;;
72785;SDS011;60902;53.876;10.674;2023-12-20T00:42:58;4.40;;;1.27;;
72785;SDS011;60902;53.876;10.674;2023-12-20T00:43:09;4.65;;;1.30;;
72785;SDS011;60902;53.876;10.674;2023-12-20T00:43:20;5.15;;;1.35;;
72785;SDS011;60902;53.876;10.674;2023-12-20T00:43:31;6.07;;;1.40;;
72785;SDS011;60902;53.876;10.674;2023-12-20T00:43:42;6.72;;;1.52;;
72785;SDS011;60902;53.876;10.674;2023-12-20T00:43:56;5.97;;;1.65;;
72785;SDS011;60902;53.876;10.674;2023-12-20T00:44:07;5.40;;;1.57;;
72785;SDS011;60902;53.876;10.674;2023-12-20T00:44:18;5.45;;;1.48;;
72785;SDS011;60902;53.876;10.674;2023-12-20T00:44:29;5.90;;;1.40;;
72785;SDS011;60902;53.876;10.674;2023-12-20T00:44:40;6.18;;;1.58;;
72785;SDS011;60902;53.876;10.674;2023-12-20T00:44:51;7.03;;;1.65;;
72785;SDS011;60902;53.876;10.674;2023-12-20T00:45:02;6.68;;;1.67;;
72785;SDS011;60902;53.876;10.674;2023-12-20T00:45:14;6.20;;;1.23;;
72785;SDS011;60902;53.876;10.674;2023-12-20T00:45:25;5.55;;;1.33;;
72785;SDS011;60902;53.876;10.674;2023-12-20T00:45:36;6.13;;;1.50;;
72785;SDS011;60902;53.876;10.674;2023-12-20T00:45:49;5.20;;;1.60;;
72785;SDS011;60902;53.876;10.674;2023-12-20T00:46:00;5.33;;;1.60;;
72785;SDS011;60902;53.876;10.674;2023-12-20T00:46:10;5.13;;;1.50;;
72785;SDS011;60902;53.876;10.674;2023-12-20T00:46:21;5.93;;;1.30;;
72785;SDS011;60902;53.876;10.674;2023-12-20T00:46:32;6.10;;;1.42;;
72785;SDS011;60902;53.876;10.674;2023-12-20T00:46:43;5.90;;;1.50;;
72785;SDS011;60902;53.876;10.674;2023-12-20T00:46:54;6.07;;;1.63;;
72785;SDS011;60902;53.876;10.674;2023-12-20T00:47:05;5.87;;;1.50;;
72785;SDS011;60902;53.876;10.674;2023-12-20T00:47:16;5.60;;;1.58;;
72785;SDS011;60902;53.876;10.674;2023-12-20T00:47:28;5.25;;;1.40;;
72785;SDS011;60902;53.876;10.674;2023-12-20T00:47:38;5.60;;;1.27;;
72785;SDS011;60902;53.876;10.674;2023-12-20T00:47:49;5.50;;;1.30;;
72785;SDS011;60902;53.876;10.674;2023-12-20T00:48:00;5.82;;;1.40;;
72785;SDS011;60902;53.876;10.674;2023-12-20T00:48:11;5.80;;;1.40;;
72785;SDS011;60902;53.876;10.674;2023-12-20T00:48:22;5.75;;;1.50;;
72785;SDS011;60902;53.876;10.674;2023-12-20T00:48:33;5.65;;;1.55;;
72785;SDS011;60902;53.876;10.674;2023-12-20T00:48:44;5.53;;;1.63;;
72785;SDS011;60902;53.876;10.674;2023-12-20T00:48:57;5.47;;;1.50;;
72785;SDS011;60902;53.876;10.674;2023-12-20T00:49:09;5.78;;;1.25;;
72785;SDS011;60902;53.876;10.674;2023-12-20T00:49:20;6.50;;;1.40;;
72785;SDS011;60902;53.876;10.674;2023-12-20T00:49:31;6.35;;;1.50;;
72785;SDS011;60902;53.876;10.674;2023-12-20T00:49:41;6.20;;;1.65;;
72785;SDS011;60902;53.876;10.674;2023-12-20T00:49:53;6.07;;;1.60;;
72785;SDS011;60902;53.876;10.674;2023-12-20T00:50:04;6.25;;;1.55;;
72785;SDS011;60902;53.876;10.674;2023-12-20T00:50:15;7.55;;;1.50;;
72785;SDS011;60902;53.876;10.674;2023-12-20T00:50:26;7.33;;;1.50;;
72785;SDS011;60902;53.876;10.674;2023-12-20T00:50:37;7.65;;;1.73;;
72785;SDS011;60902;53.876;10.674;2023-12-20T00:50:48;6.13;;;1.52;;
72785;SDS011;60902;53.876;10.674;2023-12-20T00:50:59;5.75;;;1.50;;
72785;SDS011;60902;53.876;10.674;2023-12-20T00:51:11;5.40;;;1.38;;
72785;SDS011;60902;53.876;10.674;2023-12-20T00:51:22;5.00;;;1.40;;
72785;SDS011;60902;53.876;10.674;2023-12-20T00:51:33;6.10;;;1.63;;
72785;SDS011;60902;53.876;10.674;2023-12-20T00:51:44;6.35;;;1.65;;
72785;SDS011;60902;53.876;10.674;2023-12-20T00:51:55;6.43;;;1.60;;
72785;SDS011;60902;53.876;10.674;2023-12-20T00:52:06;5.88;;;1.52;;
72785;SDS011;60902;53.876;10.674;2023-12-20T00:52:17;6.00;;;1.38;;
72785;SDS011;60902;53.876;10.674;2023-12-20T00:52:28;6.50;;;1.50;;
72785;SDS011;60902;53.876;10.674;2023-12-20T00:52:39;6.00;;;1.48;;
72785;SDS011;60902;53.876;10.674;2023-12-20T00:52:50;6.07;;;1.53;;
72785;SDS011;60902;53.876;10.674;2023-12-20T00:53:01;6.13;;;1.45;;
72785;SDS011;60902;53.876;10.674;2023-12-20T00:53:12;7.13;;;1.63;;
72785;SDS011;60902;53.876;10.674;2023-12-20T00:53:23;8.00;;;1.60;;
72785;SDS011;60902;53.876;10.674;2023-12-20T00:53:34;7.97;;;1.80;;
72785;SDS011;60902;53.876;10.674;2023-12-20T00:53:45;7.10;;;1.60;;
72785;SDS011;60902;53.876;10.674;2023-12-20T00:53:59;5.28;;;1.40;;
72785;SDS011;60902;53.876;10.674;2023-12-20T00:54:10;4.38;;;1.20;;
72785;SDS011;60902;53.876;10.674;2023-12-20T00:54:21;5.00;;;1.38;;
72785;SDS011;60902;53.876;10.674;2023-12-20T00:54:32;5.45;;;1.30;;
72785;SDS011;60902;53.876;10.674;2023-12-20T00:54:43;5.72;;;1.30;;
72785;SDS011;60902;53.876;10.674;2023-12-20T00:54:54;5.40;;;1.40;;
72785;SDS011;60902;53.876;10.674;2023-12-20T00:55:05;5.40;;;1.52;;
72785;SDS011;60902;53.876;10.674;2023-12-20T00:55:16;6.10;;;1.48;;
72785;SDS011;60902;53.876;10.674;2023-12-20T00:55:27;5.93;;;1.48;;
72785;SDS011;60902;53.876;10.674;2023-12-20T00:55:39;5.43;;;1.30;;
72785;SDS011;60902;53.876;10.674;2023-12-20T00:55:50;5.95;;;1.48;;
72785;SDS011;60902;53.876;10.674;2023-12-20T00:56:02;6.68;;;1.40;;
72785;SDS011;60902;53.876;10.674;2023-12-20T00:56:13;6.57;;;1.50;;
72785;SDS011;60902;53.876;10.674;2023-12-20T00:56:24;6.25;;;1.40;;
72785;SDS011;60902;53.876;10.674;2023-12-20T00:56:35;5.47;;;1.27;;
72785;SDS011;60902;53.876;10.674;2023-12-20T00:56:46;5.97;;;1.30;;
72785;SDS011;60902;53.876;10.674;2023-12-20T00:56:57;6.03;;;1.42;;
72785;SDS011;60902;53.876;10.674;2023-12-20T00:57:08;7.15;;;1.52;;
72785;SDS011;60902;53.876;10.674;2023-12-20T00:57:19;6.75;;;1.50;;
72785;SDS011;60902;53.876;10.674;2023-12-20T00:57:30;6.40;;;1.42;;
72785;SDS011;60902;53.876;10.674;2023-12-20T00:57:42;5.55;;;1.50;;
72785;SDS011;60902;53.876;10.674;2023-12-20T00:57:53;5.68;;;1.42;;
72785;SDS011;60902;53.876;10.674;2023-12-20T00:58:04;6.45;;;1.33;;
72785;SDS011;60902;53.876;10.674;2023-12-20T00:58:14;7.13;;;1.63;;
72785;SDS011;60902;53.876;10.674;2023-12-20T00:58:25;7.20;;;1.73;;
72785;SDS011;60902;53.876;10.674;2023-12-20T00:58:38;7.00;;;1.88;;
72785;SDS011;60902;53.876;10.674;2023-12-20T00:58:48;5.97;;;1.92;;
72785;SDS011;60902;53.876;10.674;2023-12-20T00:58:59;6.13;;;1.90;;
72785;SDS011;60902;53.876;10.674;2023-12-20T00:59:10;5.72;;;1.77;;
72785;SDS011;60902;53.876;10.674;2023-12-20T00:59:24;6.55;;;1.58;;
72785;SDS011;60902;53.876;10.674;2023-12-20T00:59:35;7.57;;;1.63;;
72785;SDS011;60902;53.876;10.674;2023-12-20T00:59:46;7.50;;;1.58;;
72785;SDS011;60902;53.876;10.674;2023-12-20T00:59:57;7.10;;;1.50;;
72785;SDS011;60902;53.876;10.674;2023-12-20T01:00:09;5.95;;;1.33;;
72785;SDS011;60902;53.876;10.674;2023-12-20T01:00:20;5.15;;;1.27;;
72785;SDS011;60902;53.876;10.674;2023-12-20T01:00:31;6.03;;;1.30;;
72785;SDS011;60902;53.876;10.674;2023-12-20T01:00:43;5.25;;;1.17;;
72785;SDS011;60902;53.876;10.674;2023-12-20T01:00:54;6.30;;;1.27;;
72785;SDS011;60902;53.876;10.674;2023-12-20T01:01:05;6.78;;;1.20;;
72785;SDS011;60902;53.876;10.674;2023-12-20T01:01:17;7.68;;;1.50;;
72785;SDS011;60902;53.876;10.674;2023-12-20T01:01:27;7.07;;;1.52;;
72785;SDS011;60902;53.876;10.674;2023-12-20T01:01:38;7.30;;;1.70;;
72785;SDS011;60902;53.876;10.674;2023-12-20T01:01:49;7.53;;;1.67;;
72785;SDS011;60902;53.876;10.674;2023-12-20T01:02:01;6.30;;;1.50;;
72785;SDS011;60902;53.876;10.674;2023-12-20T01:02:12;5.95;;;1.38;;
72785;SDS011;60902;53.876;10.674;2023-12-20T01:02:23;4.90;;;1.40;;
72785;SDS011;60902;53.876;10.674;2023-12-20T01:02:34;4.75;;;1.38;;
72785;SDS011;60902;53.876;10.674;2023-12-20T01:02:45;4.88;;;1.17;;
72785;SDS011;60902;53.876;10.674;2023-12-20T01:02:59;5.68;;;1.35;;
72785;SDS011;60902;53.876;10.674;2023-12-20T01:03:10;6.13;;;1.67;;
72785;SDS011;60902;53.876;10.674;2023-12-20T01:03:21;6.53;;;1.65;;
72785;SDS011;60902;53.876;10.674;2023-12-20T01:03:31;6.77;;;1.57;;
72785;SDS011;60902;53.876;10.674;2023-12-20T01:03:42;6.18;;;1.20;;
72785;SDS011;60902;53.876;10.674;2023-12-20T01:03:53;6.05;;;1.48;;
72785;SDS011;60902;53.876;10.674;2023-12-20T01:04:07;6.75;;;1.52;;
72785;SDS011;60902;53.876;10.674;2023-12-20T01:04:18;6.28;;;1.45;;
72785;SDS011;60902;53.876;10.674;2023-12-20T01:04:29;5.95;;;1.30;;
72785;SDS011;60902;53.876;10.674;2023-12-20T01:04:40;5.65;;;1.55;;
72785;SDS011;60902;53.876;10.674;2023-12-20T01:04:51;5.60;;;1.67;;
72785;SDS011;60902;53.876;10.674;2023-12-20T01:05:02;5.00;;;1.48;;
72785;SDS011;60902;53.876;10.674;2023-12-20T01:05:14;5.35;;;1.33;;
72785;SDS011;60902;53.876;10.674;2023-12-20T01:05:25;5.75;;;1.40;;
72785;SDS011;60902;53.876;10.674;2023-12-20T01:05:36;5.82;;;1.33;;
72785;SDS011;60902;53.876;10.674;2023-12-20T01:05:49;5.43;;;1.25;;
72785;SDS011;60902;53.876;10.674;2023-12-20T01:06:00;6.72;;;1.40;;
72785;SDS011;60902;53.876;10.674;2023-12-20T01:06:12;7.72;;;1.50;;
72785;SDS011;60902;53.876;10.674;2023-12-20T01:06:23;6.72;;;1.40;;